sensor_id;sensor_type;location;lat;lon;timestamp;temperature;humidity
67182;DHT22;54114;53.524;49.396;2023-01-24T00:02:12;-8.30;59.70
67182;DHT22;54114;53.524;49.396;2023-01-24T00:04:44;-8.40;59.60
67182;DHT22;54114;53.524;49.396;2023-01-24T00:07:12;-8.40;59.60
67182;DHT22;54114;53.524;49.396;2023-01-24T00:09:39;-8.50;59.50
67182;DHT22;54114;53.524;49.396;2023-01-24T00:12:05;-8.60;59.60
67182;DHT22;54114;53.524;49.396;2023-01-24T00:14:32;-8.60;59.60
67182;DHT22;54114;53.524;49.396;2023-01-24T00:16:58;-8.60;59.80
67182;DHT22;54114;53.524;49.396;2023-01-24T00:19:25;-8.60;59.80
67182;DHT22;54114;53.524;49.396;2023-01-24T00:21:51;-8.70;59.80
67182;DHT22;54114;53.524;49.396;2023-01-24T00:24:17;-8.80;60.00
67182;DHT22;54114;53.524;49.396;2023-01-24T00:26:44;-8.80;60.10
67182;DHT22;54114;53.524;49.396;2023-01-24T00:29:10;-8.80;60.20
67182;DHT22;54114;53.524;49.396;2023-01-24T00:31:36;-8.80;60.20
67182;DHT22;54114;53.524;49.396;2023-01-24T00:34:03;-8.90;60.20
67182;DHT22;54114;53.524;49.396;2023-01-24T00:36:29;-8.90;60.40
67182;DHT22;54114;53.524;49.396;2023-01-24T00:38:55;-8.90;60.50
67182;DHT22;54114;53.524;49.396;2023-01-24T00:41:22;-8.90;60.50
67182;DHT22;54114;53.524;49.396;2023-01-24T00:43:48;-8.90;60.50
67182;DHT22;54114;53.524;49.396;2023-01-24T00:46:14;-8.90;60.50
67182;DHT22;54114;53.524;49.396;2023-01-24T00:48:41;-8.90;60.50
67182;DHT22;54114;53.524;49.396;2023-01-24T00:51:07;-8.90;60.40
67182;DHT22;54114;53.524;49.396;2023-01-24T00:53:34;-8.90;60.40
67182;DHT22;54114;53.524;49.396;2023-01-24T00:56:00;-8.90;60.30
67182;DHT22;54114;53.524;49.396;2023-01-24T00:58:26;-9.00;60.20
67182;DHT22;54114;53.524;49.396;2023-01-24T01:00:56;-9.10;60.20
67182;DHT22;54114;53.524;49.396;2023-01-24T01:03:25;-9.10;60.30
67182;DHT22;54114;53.524;49.396;2023-01-24T01:06:04;-9.10;60.60
67182;DHT22;54114;53.524;49.396;2023-01-24T01:08:32;-9.10;60.60
67182;DHT22;54114;53.524;49.396;2023-01-24T01:11:10;-9.20;60.50
67182;DHT22;54114;53.524;49.396;2023-01-24T01:13:37;-9.20;60.60
67182;DHT22;54114;53.524;49.396;2023-01-24T01:16:07;-9.20;60.50
67182;DHT22;54114;53.524;49.396;2023-01-24T01:18:41;-9.30;60.50
67182;DHT22;54114;53.524;49.396;2023-01-24T01:21:09;-9.30;60.70
67182;DHT22;54114;53.524;49.396;2023-01-24T01:23:37;-9.40;60.90
67182;DHT22;54114;53.524;49.396;2023-01-24T01:26:14;-9.40;61.10
67182;DHT22;54114;53.524;49.396;2023-01-24T01:28:41;-9.50;61.20
67182;DHT22;54114;53.524;49.396;2023-01-24T01:31:08;-9.50;61.40
67182;DHT22;54114;53.524;49.396;2023-01-24T01:33:34;-9.50;61.40
67182;DHT22;54114;53.524;49.396;2023-01-24T01:36:01;-9.60;61.20
67182;DHT22;54114;53.524;49.396;2023-01-24T01:38:30;-9.60;61.20
67182;DHT22;54114;53.524;49.396;2023-01-24T01:40:57;-9.70;61.20
67182;DHT22;54114;53.524;49.396;2023-01-24T01:43:25;-9.70;61.20
67182;DHT22;54114;53.524;49.396;2023-01-24T01:45:54;-9.80;61.10
67182;DHT22;54114;53.524;49.396;2023-01-24T01:48:38;-9.80;61.10
67182;DHT22;54114;53.524;49.396;2023-01-24T01:51:11;-9.90;61.20
67182;DHT22;54114;53.524;49.396;2023-01-24T01:53:58;-9.90;61.30
67182;DHT22;54114;53.524;49.396;2023-01-24T01:56:29;-9.90;61.30
67182;DHT22;54114;53.524;49.396;2023-01-24T01:59:02;-10.00;61.20
67182;DHT22;54114;53.524;49.396;2023-01-24T02:01:30;-10.00;61.30
67182;DHT22;54114;53.524;49.396;2023-01-24T02:04:07;-10.00;61.30
67182;DHT22;54114;53.524;49.396;2023-01-24T02:09:18;-10.00;61.00
67182;DHT22;54114;53.524;49.396;2023-01-24T02:11:47;-10.10;60.90
67182;DHT22;54114;53.524;49.396;2023-01-24T02:14:14;-10.20;60.90
67182;DHT22;54114;53.524;49.396;2023-01-24T02:17:02;-10.20;61.00
67182;DHT22;54114;53.524;49.396;2023-01-24T02:22:20;-10.20;61.10
67182;DHT22;54114;53.524;49.396;2023-01-24T02:25:08;-10.20;61.10
67182;DHT22;54114;53.524;49.396;2023-01-24T02:27:40;-10.30;61.00
67182;DHT22;54114;53.524;49.396;2023-01-24T02:30:06;-10.30;61.20
67182;DHT22;54114;53.524;49.396;2023-01-24T02:32:33;-10.30;61.20
67182;DHT22;54114;53.524;49.396;2023-01-24T02:35:00;-10.30;61.20
67182;DHT22;54114;53.524;49.396;2023-01-24T02:37:26;-10.30;61.10
67182;DHT22;54114;53.524;49.396;2023-01-24T02:40:04;-10.30;61.10
67182;DHT22;54114;53.524;49.396;2023-01-24T02:42:33;-10.30;61.20
67182;DHT22;54114;53.524;49.396;2023-01-24T02:47:39;-10.40;61.10
67182;DHT22;54114;53.524;49.396;2023-01-24T02:50:07;-10.40;61.00
67182;DHT22;54114;53.524;49.396;2023-01-24T02:52:34;-10.50;61.00
67182;DHT22;54114;53.524;49.396;2023-01-24T02:55:19;-10.50;61.10
67182;DHT22;54114;53.524;49.396;2023-01-24T02:57:46;-10.50;61.10
67182;DHT22;54114;53.524;49.396;2023-01-24T03:00:40;-10.50;61.10
67182;DHT22;54114;53.524;49.396;2023-01-24T03:03:08;-10.50;61.30
67182;DHT22;54114;53.524;49.396;2023-01-24T03:05:35;-10.50;61.30
67182;DHT22;54114;53.524;49.396;2023-01-24T03:08:20;-10.40;61.30
67182;DHT22;54114;53.524;49.396;2023-01-24T03:10:46;-10.50;61.10
67182;DHT22;54114;53.524;49.396;2023-01-24T03:13:12;-10.50;61.00
67182;DHT22;54114;53.524;49.396;2023-01-24T03:16:01;-10.50;60.90
67182;DHT22;54114;53.524;49.396;2023-01-24T03:18:46;-10.60;60.70
67182;DHT22;54114;53.524;49.396;2023-01-24T03:21:31;-10.60;60.70
67182;DHT22;54114;53.524;49.396;2023-01-24T03:24:16;-10.70;61.30
67182;DHT22;54114;53.524;49.396;2023-01-24T03:27:02;-10.70;60.70
67182;DHT22;54114;53.524;49.396;2023-01-24T03:29:47;-10.70;60.70
67182;DHT22;54114;53.524;49.396;2023-01-24T03:32:32;-10.70;60.70
67182;DHT22;54114;53.524;49.396;2023-01-24T03:35:17;-10.70;60.70
67182;DHT22;54114;53.524;49.396;2023-01-24T03:37:43;-10.70;60.80
67182;DHT22;54114;53.524;49.396;2023-01-24T03:40:28;-10.70;60.80
67182;DHT22;54114;53.524;49.396;2023-01-24T03:42:55;-10.70;60.90
67182;DHT22;54114;53.524;49.396;2023-01-24T03:45:28;-10.70;60.80
67182;DHT22;54114;53.524;49.396;2023-01-24T03:47:57;-10.70;60.80
67182;DHT22;54114;53.524;49.396;2023-01-24T03:50:25;-10.70;60.90
67182;DHT22;54114;53.524;49.396;2023-01-24T03:53:14;-10.60;61.00
67182;DHT22;54114;53.524;49.396;2023-01-24T03:55:41;-10.70;60.90
67182;DHT22;54114;53.524;49.396;2023-01-24T03:58:08;-10.60;60.80
67182;DHT22;54114;53.524;49.396;2023-01-24T04:00:35;-10.70;60.70
67182;DHT22;54114;53.524;49.396;2023-01-24T04:03:02;-10.70;60.70
67182;DHT22;54114;53.524;49.396;2023-01-24T04:05:29;-10.70;60.70
67182;DHT22;54114;53.524;49.396;2023-01-24T04:07:55;-10.70;60.70
67182;DHT22;54114;53.524;49.396;2023-01-24T04:10:22;-10.70;60.70
67182;DHT22;54114;53.524;49.396;2023-01-24T04:12:48;-10.70;60.70
67182;DHT22;54114;53.524;49.396;2023-01-24T04:15:22;-10.70;60.60
67182;DHT22;54114;53.524;49.396;2023-01-24T04:17:56;-10.80;60.60
67182;DHT22;54114;53.524;49.396;2023-01-24T04:20:24;-10.80;60.70
67182;DHT22;54114;53.524;49.396;2023-01-24T04:22:52;-10.80;60.80
67182;DHT22;54114;53.524;49.396;2023-01-24T04:25:18;-10.80;60.90
67182;DHT22;54114;53.524;49.396;2023-01-24T04:28:08;-10.90;60.90
67182;DHT22;54114;53.524;49.396;2023-01-24T04:30:41;-10.90;60.90
67182;DHT22;54114;53.524;49.396;2023-01-24T04:33:07;-10.90;60.90
67182;DHT22;54114;53.524;49.396;2023-01-24T04:35:55;-10.90;60.90
67182;DHT22;54114;53.524;49.396;2023-01-24T04:38:25;-11.00;60.90
67182;DHT22;54114;53.524;49.396;2023-01-24T04:40:58;-11.00;61.00
67182;DHT22;54114;53.524;49.396;2023-01-24T04:43:27;-11.00;61.10
67182;DHT22;54114;53.524;49.396;2023-01-24T04:45:54;-11.00;61.10
67182;DHT22;54114;53.524;49.396;2023-01-24T04:48:21;-11.00;61.10
67182;DHT22;54114;53.524;49.396;2023-01-24T04:50:48;-11.00;61.10
67182;DHT22;54114;53.524;49.396;2023-01-24T04:53:14;-11.00;60.90
67182;DHT22;54114;53.524;49.396;2023-01-24T04:55:40;-11.00;60.80
67182;DHT22;54114;53.524;49.396;2023-01-24T04:58:07;-11.00;60.90
67182;DHT22;54114;53.524;49.396;2023-01-24T05:00:33;-11.00;60.90
67182;DHT22;54114;53.524;49.396;2023-01-24T05:03:00;-11.00;61.00
67182;DHT22;54114;53.524;49.396;2023-01-24T05:06:03;-11.00;61.10
67182;DHT22;54114;53.524;49.396;2023-01-24T05:08:29;-10.90;61.80
67182;DHT22;54114;53.524;49.396;2023-01-24T05:11:02;-10.60;61.60
67182;DHT22;54114;53.524;49.396;2023-01-24T05:13:29;-10.40;61.70
67182;DHT22;54114;53.524;49.396;2023-01-24T05:16:13;-10.20;61.50
67182;DHT22;54114;53.524;49.396;2023-01-24T05:18:52;-9.80;61.40
67182;DHT22;54114;53.524;49.396;2023-01-24T05:21:24;-9.60;61.20
67182;DHT22;54114;53.524;49.396;2023-01-24T05:23:57;-9.30;61.00
67182;DHT22;54114;53.524;49.396;2023-01-24T05:26:24;-9.10;60.70
67182;DHT22;54114;53.524;49.396;2023-01-24T05:28:51;-8.80;60.30
67182;DHT22;54114;53.524;49.396;2023-01-24T05:31:18;-8.50;60.00
67182;DHT22;54114;53.524;49.396;2023-01-24T05:33:45;-8.20;59.60
67182;DHT22;54114;53.524;49.396;2023-01-24T05:36:14;-7.90;59.40
67182;DHT22;54114;53.524;49.396;2023-01-24T05:38:44;-7.60;59.10
67182;DHT22;54114;53.524;49.396;2023-01-24T05:41:12;-7.30;58.80
67182;DHT22;54114;53.524;49.396;2023-01-24T05:43:41;-7.10;58.30
67182;DHT22;54114;53.524;49.396;2023-01-24T05:46:32;-6.80;57.90
67182;DHT22;54114;53.524;49.396;2023-01-24T05:48:59;-6.50;57.60
67182;DHT22;54114;53.524;49.396;2023-01-24T05:51:31;-6.30;57.30
67182;DHT22;54114;53.524;49.396;2023-01-24T05:53:58;-6.10;57.00
67182;DHT22;54114;53.524;49.396;2023-01-24T05:56:36;-5.90;56.70
67182;DHT22;54114;53.524;49.396;2023-01-24T05:59:03;-5.70;56.40
67182;DHT22;54114;53.524;49.396;2023-01-24T06:01:30;-5.40;56.40
67182;DHT22;54114;53.524;49.396;2023-01-24T06:03:56;-5.20;56.20
67182;DHT22;54114;53.524;49.396;2023-01-24T06:06:29;-5.00;55.90
67182;DHT22;54114;53.524;49.396;2023-01-24T06:09:01;-4.70;55.60
67182;DHT22;54114;53.524;49.396;2023-01-24T06:11:34;-4.40;55.50
67182;DHT22;54114;53.524;49.396;2023-01-24T06:14:12;-4.20;54.80
67182;DHT22;54114;53.524;49.396;2023-01-24T06:17:09;-4.00;54.20
67182;DHT22;54114;53.524;49.396;2023-01-24T06:19:36;-3.90;54.00
67182;DHT22;54114;53.524;49.396;2023-01-24T06:25:02;-3.40;53.50
67182;DHT22;54114;53.524;49.396;2023-01-24T06:27:29;-3.10;53.10
67182;DHT22;54114;53.524;49.396;2023-01-24T06:29:55;-2.70;52.80
67182;DHT22;54114;53.524;49.396;2023-01-24T06:35:32;-2.00;51.90
67182;DHT22;54114;53.524;49.396;2023-01-24T06:38:20;-1.50;52.10
67182;DHT22;54114;53.524;49.396;2023-01-24T06:41:00;-1.10;50.90
67182;DHT22;54114;53.524;49.396;2023-01-24T06:43:45;-0.70;50.50
67182;DHT22;54114;53.524;49.396;2023-01-24T06:46:17;-0.20;50.00
67182;DHT22;54114;53.524;49.396;2023-01-24T06:48:50;0.10;49.60
67182;DHT22;54114;53.524;49.396;2023-01-24T06:51:16;0.40;49.20
67182;DHT22;54114;53.524;49.396;2023-01-24T06:54:01;0.70;48.70
67182;DHT22;54114;53.524;49.396;2023-01-24T06:56:39;1.00;48.20
67182;DHT22;54114;53.524;49.396;2023-01-24T06:59:11;1.30;47.80
67182;DHT22;54114;53.524;49.396;2023-01-24T07:01:44;1.60;47.70
67182;DHT22;54114;53.524;49.396;2023-01-24T07:04:10;1.90;47.30
67182;DHT22;54114;53.524;49.396;2023-01-24T07:06:37;2.10;46.90
67182;DHT22;54114;53.524;49.396;2023-01-24T07:09:03;2.40;46.50
67182;DHT22;54114;53.524;49.396;2023-01-24T07:11:35;2.60;46.10
67182;DHT22;54114;53.524;49.396;2023-01-24T07:14:07;2.90;45.70
67182;DHT22;54114;53.524;49.396;2023-01-24T07:16:45;3.10;45.50
67182;DHT22;54114;53.524;49.396;2023-01-24T07:19:21;3.40;45.00
67182;DHT22;54114;53.524;49.396;2023-01-24T07:21:54;3.70;45.80
67182;DHT22;54114;53.524;49.396;2023-01-24T07:24:26;4.10;45.10
67182;DHT22;54114;53.524;49.396;2023-01-24T07:26:55;4.40;44.80
67182;DHT22;54114;53.524;49.396;2023-01-24T07:29:22;4.80;44.40
67182;DHT22;54114;53.524;49.396;2023-01-24T07:31:48;5.00;44.00
67182;DHT22;54114;53.524;49.396;2023-01-24T07:34:16;5.20;43.60
67182;DHT22;54114;53.524;49.396;2023-01-24T07:36:43;5.40;43.40
67182;DHT22;54114;53.524;49.396;2023-01-24T07:39:10;5.60;43.30
67182;DHT22;54114;53.524;49.396;2023-01-24T07:41:43;5.80;43.30
67182;DHT22;54114;53.524;49.396;2023-01-24T07:44:11;6.10;42.80
67182;DHT22;54114;53.524;49.396;2023-01-24T07:46:44;6.30;42.50
67182;DHT22;54114;53.524;49.396;2023-01-24T07:49:10;6.60;42.20
67182;DHT22;54114;53.524;49.396;2023-01-24T07:51:48;6.80;41.70
67182;DHT22;54114;53.524;49.396;2023-01-24T07:54:15;7.10;41.20
67182;DHT22;54114;53.524;49.396;2023-01-24T07:56:44;7.30;40.60
67182;DHT22;54114;53.524;49.396;2023-01-24T07:59:10;7.50;40.00
67182;DHT22;54114;53.524;49.396;2023-01-24T08:01:49;7.80;39.50
67182;DHT22;54114;53.524;49.396;2023-01-24T08:04:16;8.00;38.80
67182;DHT22;54114;53.524;49.396;2023-01-24T08:06:48;8.20;38.20
67182;DHT22;54114;53.524;49.396;2023-01-24T08:09:33;8.30;37.90
67182;DHT22;54114;53.524;49.396;2023-01-24T08:12:12;8.40;37.50
67182;DHT22;54114;53.524;49.396;2023-01-24T08:14:38;8.60;37.30
67182;DHT22;54114;53.524;49.396;2023-01-24T08:17:35;8.70;36.90
67182;DHT22;54114;53.524;49.396;2023-01-24T08:20:02;8.90;36.60
67182;DHT22;54114;53.524;49.396;2023-01-24T08:22:41;9.00;36.50
67182;DHT22;54114;53.524;49.396;2023-01-24T08:25:27;9.20;36.10
67182;DHT22;54114;53.524;49.396;2023-01-24T08:28:01;9.40;35.80
67182;DHT22;54114;53.524;49.396;2023-01-24T08:30:34;9.50;35.50
67182;DHT22;54114;53.524;49.396;2023-01-24T08:33:25;9.70;35.40
67182;DHT22;54114;53.524;49.396;2023-01-24T08:35:52;9.80;35.00
67182;DHT22;54114;53.524;49.396;2023-01-24T08:38:24;10.00;34.90
67182;DHT22;54114;53.524;49.396;2023-01-24T08:41:03;10.00;34.80
67182;DHT22;54114;53.524;49.396;2023-01-24T08:43:35;10.20;34.70
67182;DHT22;54114;53.524;49.396;2023-01-24T08:46:02;10.20;34.50
67182;DHT22;54114;53.524;49.396;2023-01-24T08:48:46;10.30;34.50
67182;DHT22;54114;53.524;49.396;2023-01-24T08:51:13;10.40;34.30
67182;DHT22;54114;53.524;49.396;2023-01-24T08:53:45;10.50;34.00
67182;DHT22;54114;53.524;49.396;2023-01-24T08:56:17;10.60;33.80
67182;DHT22;54114;53.524;49.396;2023-01-24T08:59:14;10.60;33.70
67182;DHT22;54114;53.524;49.396;2023-01-24T09:01:46;10.60;33.80
67182;DHT22;54114;53.524;49.396;2023-01-24T09:04:18;11.00;33.20
67182;DHT22;54114;53.524;49.396;2023-01-24T09:07:03;11.00;32.80
67182;DHT22;54114;53.524;49.396;2023-01-24T09:09:51;11.00;32.70
67182;DHT22;54114;53.524;49.396;2023-01-24T09:12:23;10.90;32.60
67182;DHT22;54114;53.524;49.396;2023-01-24T09:14:49;10.80;32.80
67182;DHT22;54114;53.524;49.396;2023-01-24T09:17:16;10.80;32.80
67182;DHT22;54114;53.524;49.396;2023-01-24T09:19:42;10.90;32.60
67182;DHT22;54114;53.524;49.396;2023-01-24T09:22:20;10.90;32.60
67182;DHT22;54114;53.524;49.396;2023-01-24T09:24:53;11.00;32.30
67182;DHT22;54114;53.524;49.396;2023-01-24T09:27:25;11.00;32.20
67182;DHT22;54114;53.524;49.396;2023-01-24T09:29:52;11.10;32.20
67182;DHT22;54114;53.524;49.396;2023-01-24T09:32:24;11.10;32.10
67182;DHT22;54114;53.524;49.396;2023-01-24T09:34:57;11.10;32.10
67182;DHT22;54114;53.524;49.396;2023-01-24T09:37:42;11.20;32.50
67182;DHT22;54114;53.524;49.396;2023-01-24T09:40:17;11.20;31.80
67182;DHT22;54114;53.524;49.396;2023-01-24T09:42:51;11.20;31.40
67182;DHT22;54114;53.524;49.396;2023-01-24T09:45:43;11.10;31.30
67182;DHT22;54114;53.524;49.396;2023-01-24T09:48:39;11.10;31.70
67182;DHT22;54114;53.524;49.396;2023-01-24T09:51:25;11.10;31.70
67182;DHT22;54114;53.524;49.396;2023-01-24T09:54:29;11.20;31.50
67182;DHT22;54114;53.524;49.396;2023-01-24T10:00:30;11.40;31.30
67182;DHT22;54114;53.524;49.396;2023-01-24T10:03:19;11.40;31.30
67182;DHT22;54114;53.524;49.396;2023-01-24T10:05:54;11.50;31.10
67182;DHT22;54114;53.524;49.396;2023-01-24T10:12:14;11.80;30.90
67182;DHT22;54114;53.524;49.396;2023-01-24T10:14:59;11.90;30.70
67182;DHT22;54114;53.524;49.396;2023-01-24T10:23:44;12.00;30.30
67182;DHT22;54114;53.524;49.396;2023-01-24T10:26:18;11.90;29.90
67182;DHT22;54114;53.524;49.396;2023-01-24T10:29:24;11.90;30.00
67182;DHT22;54114;53.524;49.396;2023-01-24T10:32:10;12.00;29.90
67182;DHT22;54114;53.524;49.396;2023-01-24T10:34:53;12.00;29.90
67182;DHT22;54114;53.524;49.396;2023-01-24T10:37:49;12.00;29.80
67182;DHT22;54114;53.524;49.396;2023-01-24T10:40:21;12.10;29.80
67182;DHT22;54114;53.524;49.396;2023-01-24T10:43:08;12.30;29.60
67182;DHT22;54114;53.524;49.396;2023-01-24T10:45:40;12.30;29.40
67182;DHT22;54114;53.524;49.396;2023-01-24T10:48:37;12.30;30.00
67182;DHT22;54114;53.524;49.396;2023-01-24T10:51:15;12.20;29.20
67182;DHT22;54114;53.524;49.396;2023-01-24T10:53:43;12.10;29.30
67182;DHT22;54114;53.524;49.396;2023-01-24T10:56:10;11.90;29.10
67182;DHT22;54114;53.524;49.396;2023-01-24T11:01:25;11.60;29.40
67182;DHT22;54114;53.524;49.396;2023-01-24T11:03:58;11.70;29.60
67182;DHT22;54114;53.524;49.396;2023-01-24T11:06:31;11.80;29.20
67182;DHT22;54114;53.524;49.396;2023-01-24T11:09:12;11.60;28.80
67182;DHT22;54114;53.524;49.396;2023-01-24T11:12:13;11.50;28.80
67182;DHT22;54114;53.524;49.396;2023-01-24T11:15:03;11.20;28.60
67182;DHT22;54114;53.524;49.396;2023-01-24T11:17:43;11.00;28.90
67182;DHT22;54114;53.524;49.396;2023-01-24T11:20:30;10.80;28.90
67182;DHT22;54114;53.524;49.396;2023-01-24T11:23:18;10.60;29.10
67182;DHT22;54114;53.524;49.396;2023-01-24T11:26:04;10.40;29.30
67182;DHT22;54114;53.524;49.396;2023-01-24T11:28:58;10.20;29.40
67182;DHT22;54114;53.524;49.396;2023-01-24T11:31:52;10.10;29.50
67182;DHT22;54114;53.524;49.396;2023-01-24T11:40:36;9.50;29.50
67182;DHT22;54114;53.524;49.396;2023-01-24T11:43:21;9.40;29.60
67182;DHT22;54114;53.524;49.396;2023-01-24T11:45:58;9.30;29.60
67182;DHT22;54114;53.524;49.396;2023-01-24T11:48:33;9.20;29.60
67182;DHT22;54114;53.524;49.396;2023-01-24T11:56:41;9.20;29.90
67182;DHT22;54114;53.524;49.396;2023-01-24T12:08:07;8.80;30.00
67182;DHT22;54114;53.524;49.396;2023-01-24T12:16:18;8.10;30.00
67182;DHT22;54114;53.524;49.396;2023-01-24T12:19:01;7.80;30.00
67182;DHT22;54114;53.524;49.396;2023-01-24T12:21:39;7.60;30.20
67182;DHT22;54114;53.524;49.396;2023-01-24T12:24:12;7.10;30.30
67182;DHT22;54114;53.524;49.396;2023-01-24T12:26:52;6.70;30.50
67182;DHT22;54114;53.524;49.396;2023-01-24T12:34:39;5.60;31.40
67182;DHT22;54114;53.524;49.396;2023-01-24T12:37:12;5.30;31.70
67182;DHT22;54114;53.524;49.396;2023-01-24T12:43:01;4.70;32.30
67182;DHT22;54114;53.524;49.396;2023-01-24T12:49:06;4.10;32.80
67182;DHT22;54114;53.524;49.396;2023-01-24T12:54:48;3.30;33.40
67182;DHT22;54114;53.524;49.396;2023-01-24T12:57:24;2.90;33.80
67182;DHT22;54114;53.524;49.396;2023-01-24T12:59:53;2.50;34.20
67182;DHT22;54114;53.524;49.396;2023-01-24T13:05:17;1.90;34.80
67182;DHT22;54114;53.524;49.396;2023-01-24T13:13:22;0.90;35.90
67182;DHT22;54114;53.524;49.396;2023-01-24T13:16:02;0.60;36.20
67182;DHT22;54114;53.524;49.396;2023-01-24T13:22:03;0.10;37.10
67182;DHT22;54114;53.524;49.396;2023-01-24T13:27:03;-0.30;37.80
67182;DHT22;54114;53.524;49.396;2023-01-24T13:32:29;-0.80;38.50
67182;DHT22;54114;53.524;49.396;2023-01-24T13:34:56;-1.00;38.90
67182;DHT22;54114;53.524;49.396;2023-01-24T13:37:48;-1.20;39.20
67182;DHT22;54114;53.524;49.396;2023-01-24T13:40:28;-1.30;39.60
67182;DHT22;54114;53.524;49.396;2023-01-24T13:42:56;-1.40;40.20
67182;DHT22;54114;53.524;49.396;2023-01-24T13:47:51;-1.70;41.20
67182;DHT22;54114;53.524;49.396;2023-01-24T13:50:22;-1.80;41.10
67182;DHT22;54114;53.524;49.396;2023-01-24T13:52:53;-1.90;41.20
67182;DHT22;54114;53.524;49.396;2023-01-24T13:58:17;-2.10;41.80
67182;DHT22;54114;53.524;49.396;2023-01-24T14:00:46;-2.20;42.30
67182;DHT22;54114;53.524;49.396;2023-01-24T14:06:21;-2.40;42.40
67182;DHT22;54114;53.524;49.396;2023-01-24T14:09:25;-2.40;42.80
67182;DHT22;54114;53.524;49.396;2023-01-24T14:11:55;-2.60;43.00
67182;DHT22;54114;53.524;49.396;2023-01-24T14:16:58;-2.80;43.80
67182;DHT22;54114;53.524;49.396;2023-01-24T14:19:28;-2.90;43.90
67182;DHT22;54114;53.524;49.396;2023-01-24T14:22:21;-3.00;44.10
67182;DHT22;54114;53.524;49.396;2023-01-24T14:24:54;-3.10;44.40
67182;DHT22;54114;53.524;49.396;2023-01-24T14:33:32;-3.30;45.40
67182;DHT22;54114;53.524;49.396;2023-01-24T14:36:30;-3.40;45.80
67182;DHT22;54114;53.524;49.396;2023-01-24T14:41:53;-3.50;45.80
67182;DHT22;54114;53.524;49.396;2023-01-24T14:44:28;-3.60;45.70
67182;DHT22;54114;53.524;49.396;2023-01-24T14:49:42;-3.70;45.50
67182;DHT22;54114;53.524;49.396;2023-01-24T14:52:23;-3.80;45.40
67182;DHT22;54114;53.524;49.396;2023-01-24T14:54:59;-3.90;45.40
67182;DHT22;54114;53.524;49.396;2023-01-24T14:57:27;-3.90;45.70
67182;DHT22;54114;53.524;49.396;2023-01-24T15:00:01;-4.10;45.90
67182;DHT22;54114;53.524;49.396;2023-01-24T15:02:33;-4.10;46.20
67182;DHT22;54114;53.524;49.396;2023-01-24T15:05:01;-4.20;47.00
67182;DHT22;54114;53.524;49.396;2023-01-24T15:07:34;-4.30;47.30
67182;DHT22;54114;53.524;49.396;2023-01-24T15:10:13;-4.30;47.30
67182;DHT22;54114;53.524;49.396;2023-01-24T15:12:45;-4.30;47.10
67182;DHT22;54114;53.524;49.396;2023-01-24T15:15:18;-4.40;47.00
67182;DHT22;54114;53.524;49.396;2023-01-24T15:17:46;-4.50;47.00
67182;DHT22;54114;53.524;49.396;2023-01-24T15:20:15;-4.50;47.30
67182;DHT22;54114;53.524;49.396;2023-01-24T15:22:49;-4.50;47.60
67182;DHT22;54114;53.524;49.396;2023-01-24T15:25:19;-4.60;47.90
67182;DHT22;54114;53.524;49.396;2023-01-24T15:27:48;-4.60;48.10
67182;DHT22;54114;53.524;49.396;2023-01-24T15:32:48;-4.70;48.70
67182;DHT22;54114;53.524;49.396;2023-01-24T15:37:44;-4.70;49.80
67182;DHT22;54114;53.524;49.396;2023-01-24T15:40:12;-4.70;49.90
67182;DHT22;54114;53.524;49.396;2023-01-24T15:42:44;-4.70;50.20
67182;DHT22;54114;53.524;49.396;2023-01-24T15:45:31;-4.60;50.30
67182;DHT22;54114;53.524;49.396;2023-01-24T15:48:06;-4.60;50.30
67182;DHT22;54114;53.524;49.396;2023-01-24T15:51:19;-4.60;50.30
67182;DHT22;54114;53.524;49.396;2023-01-24T15:54:11;-4.60;50.40
67182;DHT22;54114;53.524;49.396;2023-01-24T15:56:38;-4.60;50.60
67182;DHT22;54114;53.524;49.396;2023-01-24T15:59:17;-4.70;51.00
67182;DHT22;54114;53.524;49.396;2023-01-24T16:01:44;-4.70;51.30
67182;DHT22;54114;53.524;49.396;2023-01-24T16:04:12;-4.60;51.40
67182;DHT22;54114;53.524;49.396;2023-01-24T16:06:40;-4.60;51.40
67182;DHT22;54114;53.524;49.396;2023-01-24T16:09:06;-4.70;51.30
67182;DHT22;54114;53.524;49.396;2023-01-24T16:11:38;-4.60;51.30
67182;DHT22;54114;53.524;49.396;2023-01-24T16:14:10;-4.60;51.40
67182;DHT22;54114;53.524;49.396;2023-01-24T16:16:39;-4.60;51.40
67182;DHT22;54114;53.524;49.396;2023-01-24T16:19:13;-4.60;51.40
67182;DHT22;54114;53.524;49.396;2023-01-24T16:21:58;-4.60;51.40
67182;DHT22;54114;53.524;49.396;2023-01-24T16:24:36;-4.60;51.80
67182;DHT22;54114;53.524;49.396;2023-01-24T16:27:12;-4.60;51.70
67182;DHT22;54114;53.524;49.396;2023-01-24T16:29:58;-4.50;51.50
67182;DHT22;54114;53.524;49.396;2023-01-24T16:32:24;-4.50;51.60
67182;DHT22;54114;53.524;49.396;2023-01-24T16:34:52;-4.50;52.00
67182;DHT22;54114;53.524;49.396;2023-01-24T16:37:24;-4.50;52.20
67182;DHT22;54114;53.524;49.396;2023-01-24T16:39:51;-4.50;52.40
67182;DHT22;54114;53.524;49.396;2023-01-24T16:42:23;-4.50;52.30
67182;DHT22;54114;53.524;49.396;2023-01-24T16:44:59;-4.50;52.10
67182;DHT22;54114;53.524;49.396;2023-01-24T16:47:31;-4.50;51.80
67182;DHT22;54114;53.524;49.396;2023-01-24T16:49:58;-4.50;51.50
67182;DHT22;54114;53.524;49.396;2023-01-24T16:52:25;-4.60;51.40
67182;DHT22;54114;53.524;49.396;2023-01-24T16:55:03;-4.60;51.40
67182;DHT22;54114;53.524;49.396;2023-01-24T16:57:35;-4.60;51.40
67182;DHT22;54114;53.524;49.396;2023-01-24T17:00:14;-4.70;51.20
67182;DHT22;54114;53.524;49.396;2023-01-24T17:02:53;-4.70;51.20
67182;DHT22;54114;53.524;49.396;2023-01-24T17:05:28;-4.70;51.30
67182;DHT22;54114;53.524;49.396;2023-01-24T17:07:55;-4.80;51.30
67182;DHT22;54114;53.524;49.396;2023-01-24T17:10:22;-4.80;51.40
67182;DHT22;54114;53.524;49.396;2023-01-24T17:12:49;-4.80;51.50
67182;DHT22;54114;53.524;49.396;2023-01-24T17:15:16;-4.80;51.70
67182;DHT22;54114;53.524;49.396;2023-01-24T17:17:42;-4.80;51.80
67182;DHT22;54114;53.524;49.396;2023-01-24T17:20:09;-4.90;51.90
67182;DHT22;54114;53.524;49.396;2023-01-24T17:22:36;-4.90;51.90
67182;DHT22;54114;53.524;49.396;2023-01-24T17:25:03;-4.90;52.10
67182;DHT22;54114;53.524;49.396;2023-01-24T17:28:00;-4.90;52.10
67182;DHT22;54114;53.524;49.396;2023-01-24T17:30:51;-4.90;52.20
67182;DHT22;54114;53.524;49.396;2023-01-24T17:33:29;-4.90;52.20
67182;DHT22;54114;53.524;49.396;2023-01-24T17:36:02;-4.90;52.20
67182;DHT22;54114;53.524;49.396;2023-01-24T17:38:41;-4.80;52.10
67182;DHT22;54114;53.524;49.396;2023-01-24T17:41:20;-4.90;51.90
67182;DHT22;54114;53.524;49.396;2023-01-24T17:43:59;-4.90;51.90
67182;DHT22;54114;53.524;49.396;2023-01-24T17:46:31;-4.90;52.10
67182;DHT22;54114;53.524;49.396;2023-01-24T17:49:04;-4.90;52.40
67182;DHT22;54114;53.524;49.396;2023-01-24T17:51:37;-4.90;52.40
67182;DHT22;54114;53.524;49.396;2023-01-24T17:54:03;-4.90;52.50